sensor_id;sensor_type;location;lat;lon;timestamp;P1;durP1;ratioP1;P2;durP2;ratioP2
45007;SDS011;30743;52.008;5.644;2023-05-19T00:01:10;7.90;;;3.67;;
45007;SDS011;30743;52.008;5.644;2023-05-19T00:03:48;8.30;;;3.42;;
45007;SDS011;30743;52.008;5.644;2023-05-19T00:06:16;6.13;;;3.45;;
45007;SDS011;30743;52.008;5.644;2023-05-19T00:08:53;5.78;;;3.10;;
45007;SDS011;30743;52.008;5.644;2023-05-19T00:11:22;8.43;;;2.88;;
45007;SDS011;30743;52.008;5.644;2023-05-19T00:13:49;8.57;;;3.58;;
45007;SDS011;30743;52.008;5.644;2023-05-19T00:16:15;7.15;;;3.17;;
45007;SDS011;30743;52.008;5.644;2023-05-19T00:18:41;9.07;;;3.53;;
45007;SDS011;30743;52.008;5.644;2023-05-19T00:21:07;8.73;;;4.43;;
45007;SDS011;30743;52.008;5.644;2023-05-19T00:23:33;11.00;;;3.65;;
45007;SDS011;30743;52.008;5.644;2023-05-19T00:25:58;8.85;;;4.45;;
45007;SDS011;30743;52.008;5.644;2023-05-19T00:28:24;9.40;;;4.28;;
45007;SDS011;30743;52.008;5.644;2023-05-19T00:30:49;10.93;;;4.90;;
45007;SDS011;30743;52.008;5.644;2023-05-19T00:33:15;10.15;;;4.55;;
45007;SDS011;30743;52.008;5.644;2023-05-19T00:35:41;7.05;;;3.60;;
45007;SDS011;30743;52.008;5.644;2023-05-19T00:38:06;9.35;;;3.33;;
45007;SDS011;30743;52.008;5.644;2023-05-19T00:40:33;5.40;;;3.08;;
45007;SDS011;30743;52.008;5.644;2023-05-19T00:43:00;8.05;;;3.88;;
45007;SDS011;30743;52.008;5.644;2023-05-19T00:45:26;6.88;;;3.47;;
45007;SDS011;30743;52.008;5.644;2023-05-19T00:47:52;6.85;;;3.58;;
45007;SDS011;30743;52.008;5.644;2023-05-19T00:50:18;9.85;;;3.38;;
45007;SDS011;30743;52.008;5.644;2023-05-19T00:52:43;8.65;;;3.40;;
45007;SDS011;30743;52.008;5.644;2023-05-19T00:55:09;6.70;;;3.92;;
45007;SDS011;30743;52.008;5.644;2023-05-19T00:57:36;7.85;;;3.55;;
45007;SDS011;30743;52.008;5.644;2023-05-19T01:00:02;8.23;;;3.50;;
45007;SDS011;30743;52.008;5.644;2023-05-19T01:02:29;7.47;;;3.53;;
45007;SDS011;30743;52.008;5.644;2023-05-19T01:04:56;5.63;;;3.30;;
45007;SDS011;30743;52.008;5.644;2023-05-19T01:07:22;7.88;;;3.75;;
45007;SDS011;30743;52.008;5.644;2023-05-19T01:09:49;9.60;;;4.13;;
45007;SDS011;30743;52.008;5.644;2023-05-19T01:12:15;11.07;;;4.00;;
45007;SDS011;30743;52.008;5.644;2023-05-19T01:14:41;7.00;;;3.97;;
45007;SDS011;30743;52.008;5.644;2023-05-19T01:17:18;11.48;;;4.18;;
45007;SDS011;30743;52.008;5.644;2023-05-19T01:22:39;7.43;;;3.92;;
45007;SDS011;30743;52.008;5.644;2023-05-19T01:25:36;6.93;;;3.97;;
45007;SDS011;30743;52.008;5.644;2023-05-19T01:30:46;11.00;;;4.93;;
45007;SDS011;30743;52.008;5.644;2023-05-19T01:33:16;8.75;;;4.13;;
45007;SDS011;30743;52.008;5.644;2023-05-19T01:35:43;9.93;;;3.90;;
45007;SDS011;30743;52.008;5.644;2023-05-19T01:38:11;9.18;;;3.83;;
45007;SDS011;30743;52.008;5.644;2023-05-19T01:40:40;9.63;;;4.72;;
45007;SDS011;30743;52.008;5.644;2023-05-19T01:43:08;7.97;;;3.72;;
45007;SDS011;30743;52.008;5.644;2023-05-19T01:45:50;7.03;;;3.47;;
45007;SDS011;30743;52.008;5.644;2023-05-19T01:48:16;10.40;;;4.35;;
45007;SDS011;30743;52.008;5.644;2023-05-19T01:50:43;7.25;;;4.32;;
45007;SDS011;30743;52.008;5.644;2023-05-19T01:53:10;11.82;;;4.18;;
45007;SDS011;30743;52.008;5.644;2023-05-19T01:55:39;6.57;;;4.00;;
45007;SDS011;30743;52.008;5.644;2023-05-19T01:59:15;6.83;;;4.03;;
45007;SDS011;30743;52.008;5.644;2023-05-19T02:01:15;7.93;;;4.10;;
45007;SDS011;30743;52.008;5.644;2023-05-19T02:09:24;6.88;;;3.80;;
45007;SDS011;30743;52.008;5.644;2023-05-19T02:11:53;8.55;;;3.95;;
45007;SDS011;30743;52.008;5.644;2023-05-19T02:14:28;10.73;;;4.22;;
45007;SDS011;30743;52.008;5.644;2023-05-19T02:16:58;8.82;;;4.35;;
45007;SDS011;30743;52.008;5.644;2023-05-19T02:19:26;12.57;;;4.72;;
45007;SDS011;30743;52.008;5.644;2023-05-19T02:21:54;9.82;;;4.43;;
45007;SDS011;30743;52.008;5.644;2023-05-19T02:24:20;8.40;;;4.25;;
45007;SDS011;30743;52.008;5.644;2023-05-19T02:26:46;10.57;;;4.68;;
45007;SDS011;30743;52.008;5.644;2023-05-19T02:31:42;10.88;;;4.50;;
45007;SDS011;30743;52.008;5.644;2023-05-19T02:34:07;11.85;;;4.57;;
45007;SDS011;30743;52.008;5.644;2023-05-19T02:36:33;9.75;;;4.03;;
45007;SDS011;30743;52.008;5.644;2023-05-19T02:39:00;8.73;;;4.25;;
45007;SDS011;30743;52.008;5.644;2023-05-19T02:41:26;7.50;;;3.75;;
45007;SDS011;30743;52.008;5.644;2023-05-19T02:43:52;8.20;;;4.82;;
45007;SDS011;30743;52.008;5.644;2023-05-19T02:46:18;12.32;;;5.00;;
45007;SDS011;30743;52.008;5.644;2023-05-19T02:48:44;11.32;;;4.45;;
45007;SDS011;30743;52.008;5.644;2023-05-19T02:51:09;8.93;;;4.40;;
45007;SDS011;30743;52.008;5.644;2023-05-19T02:53:35;11.43;;;4.72;;
45007;SDS011;30743;52.008;5.644;2023-05-19T02:56:00;7.88;;;4.90;;
45007;SDS011;30743;52.008;5.644;2023-05-19T02:58:26;9.63;;;5.18;;
45007;SDS011;30743;52.008;5.644;2023-05-19T03:00:51;13.48;;;6.10;;
45007;SDS011;30743;52.008;5.644;2023-05-19T03:03:17;15.10;;;6.75;;
45007;SDS011;30743;52.008;5.644;2023-05-19T03:05:42;10.35;;;5.43;;
45007;SDS011;30743;52.008;5.644;2023-05-19T03:08:08;15.63;;;6.93;;
45007;SDS011;30743;52.008;5.644;2023-05-19T03:10:34;10.85;;;5.85;;
45007;SDS011;30743;52.008;5.644;2023-05-19T03:13:00;12.13;;;5.47;;
45007;SDS011;30743;52.008;5.644;2023-05-19T03:15:25;8.80;;;5.85;;
45007;SDS011;30743;52.008;5.644;2023-05-19T03:17:51;9.75;;;5.30;;
45007;SDS011;30743;52.008;5.644;2023-05-19T03:20:16;13.85;;;6.18;;
45007;SDS011;30743;52.008;5.644;2023-05-19T03:22:42;10.98;;;5.03;;
45007;SDS011;30743;52.008;5.644;2023-05-19T03:25:08;12.43;;;6.50;;
45007;SDS011;30743;52.008;5.644;2023-05-19T03:27:34;13.68;;;7.18;;
45007;SDS011;30743;52.008;5.644;2023-05-19T03:29:59;11.48;;;6.47;;
45007;SDS011;30743;52.008;5.644;2023-05-19T03:32:25;13.30;;;7.95;;
45007;SDS011;30743;52.008;5.644;2023-05-19T03:34:50;13.73;;;8.50;;
45007;SDS011;30743;52.008;5.644;2023-05-19T03:37:16;12.80;;;7.90;;
45007;SDS011;30743;52.008;5.644;2023-05-19T03:39:41;15.25;;;9.15;;
45007;SDS011;30743;52.008;5.644;2023-05-19T03:42:07;12.50;;;7.70;;
45007;SDS011;30743;52.008;5.644;2023-05-19T03:44:33;10.82;;;7.38;;
45007;SDS011;30743;52.008;5.644;2023-05-19T03:46:58;11.15;;;7.38;;
45007;SDS011;30743;52.008;5.644;2023-05-19T03:49:24;14.73;;;7.90;;
45007;SDS011;30743;52.008;5.644;2023-05-19T03:51:49;12.90;;;8.02;;
45007;SDS011;30743;52.008;5.644;2023-05-19T03:54:15;12.88;;;8.00;;
45007;SDS011;30743;52.008;5.644;2023-05-19T03:56:41;12.82;;;8.15;;
45007;SDS011;30743;52.008;5.644;2023-05-19T03:59:07;12.02;;;6.95;;
45007;SDS011;30743;52.008;5.644;2023-05-19T04:01:34;16.42;;;7.95;;
45007;SDS011;30743;52.008;5.644;2023-05-19T04:04:00;12.98;;;7.18;;
45007;SDS011;30743;52.008;5.644;2023-05-19T04:06:26;8.93;;;5.18;;
45007;SDS011;30743;52.008;5.644;2023-05-19T04:08:52;12.48;;;6.05;;
45007;SDS011;30743;52.008;5.644;2023-05-19T04:11:17;12.45;;;5.55;;
45007;SDS011;30743;52.008;5.644;2023-05-19T04:13:46;11.20;;;6.30;;
45007;SDS011;30743;52.008;5.644;2023-05-19T04:16:11;7.80;;;4.82;;
45007;SDS011;30743;52.008;5.644;2023-05-19T04:18:37;9.15;;;5.53;;
45007;SDS011;30743;52.008;5.644;2023-05-19T04:21:03;10.80;;;5.10;;
45007;SDS011;30743;52.008;5.644;2023-05-19T04:23:29;10.80;;;5.57;;
45007;SDS011;30743;52.008;5.644;2023-05-19T04:25:55;7.45;;;5.15;;
45007;SDS011;30743;52.008;5.644;2023-05-19T04:28:22;13.60;;;5.57;;
45007;SDS011;30743;52.008;5.644;2023-05-19T04:30:48;8.15;;;4.97;;
45007;SDS011;30743;52.008;5.644;2023-05-19T04:33:14;9.63;;;5.32;;
45007;SDS011;30743;52.008;5.644;2023-05-19T04:35:40;9.13;;;5.50;;
45007;SDS011;30743;52.008;5.644;2023-05-19T04:38:05;7.28;;;4.63;;
45007;SDS011;30743;52.008;5.644;2023-05-19T04:40:31;10.05;;;4.97;;
45007;SDS011;30743;52.008;5.644;2023-05-19T04:42:57;9.65;;;5.43;;
45007;SDS011;30743;52.008;5.644;2023-05-19T04:45:22;12.57;;;5.32;;
45007;SDS011;30743;52.008;5.644;2023-05-19T04:47:50;9.18;;;4.82;;
45007;SDS011;30743;52.008;5.644;2023-05-19T04:50:16;12.93;;;5.30;;
45007;SDS011;30743;52.008;5.644;2023-05-19T04:52:42;11.27;;;5.10;;
45007;SDS011;30743;52.008;5.644;2023-05-19T04:55:09;10.48;;;5.38;;
45007;SDS011;30743;52.008;5.644;2023-05-19T04:57:35;8.18;;;4.95;;
45007;SDS011;30743;52.008;5.644;2023-05-19T05:00:01;9.70;;;4.40;;
45007;SDS011;30743;52.008;5.644;2023-05-19T05:02:31;7.65;;;4.90;;
45007;SDS011;30743;52.008;5.644;2023-05-19T05:04:57;8.63;;;5.35;;
45007;SDS011;30743;52.008;5.644;2023-05-19T05:07:23;7.88;;;5.50;;
45007;SDS011;30743;52.008;5.644;2023-05-19T05:09:49;8.25;;;4.90;;
45007;SDS011;30743;52.008;5.644;2023-05-19T05:12:14;8.80;;;5.20;;
45007;SDS011;30743;52.008;5.644;2023-05-19T05:14:41;9.35;;;4.57;;
45007;SDS011;30743;52.008;5.644;2023-05-19T05:17:07;8.65;;;4.57;;
45007;SDS011;30743;52.008;5.644;2023-05-19T05:19:33;10.90;;;5.03;;
45007;SDS011;30743;52.008;5.644;2023-05-19T05:21:59;6.15;;;4.70;;
45007;SDS011;30743;52.008;5.644;2023-05-19T05:24:25;6.80;;;4.63;;
45007;SDS011;30743;52.008;5.644;2023-05-19T05:26:51;8.90;;;4.68;;
45007;SDS011;30743;52.008;5.644;2023-05-19T05:29:17;9.95;;;4.90;;
45007;SDS011;30743;52.008;5.644;2023-05-19T05:31:43;8.60;;;4.65;;
45007;SDS011;30743;52.008;5.644;2023-05-19T05:34:09;8.05;;;4.82;;
45007;SDS011;30743;52.008;5.644;2023-05-19T05:36:34;7.95;;;4.57;;
45007;SDS011;30743;52.008;5.644;2023-05-19T05:39:00;8.30;;;4.55;;
45007;SDS011;30743;52.008;5.644;2023-05-19T05:41:26;7.30;;;4.57;;
45007;SDS011;30743;52.008;5.644;2023-05-19T05:43:59;8.57;;;4.50;;
45007;SDS011;30743;52.008;5.644;2023-05-19T05:46:25;6.05;;;3.95;;
45007;SDS011;30743;52.008;5.644;2023-05-19T05:48:51;9.95;;;4.72;;
45007;SDS011;30743;52.008;5.644;2023-05-19T05:51:17;7.43;;;4.70;;
45007;SDS011;30743;52.008;5.644;2023-05-19T05:53:45;11.13;;;4.20;;
45007;SDS011;30743;52.008;5.644;2023-05-19T05:56:17;8.43;;;4.15;;
45007;SDS011;30743;52.008;5.644;2023-05-19T05:58:42;6.20;;;3.58;;
45007;SDS011;30743;52.008;5.644;2023-05-19T06:01:08;5.13;;;3.67;;
45007;SDS011;30743;52.008;5.644;2023-05-19T06:03:41;8.90;;;4.22;;
45007;SDS011;30743;52.008;5.644;2023-05-19T06:06:09;6.82;;;4.03;;
45007;SDS011;30743;52.008;5.644;2023-05-19T06:08:35;9.45;;;3.78;;
45007;SDS011;30743;52.008;5.644;2023-05-19T06:11:01;7.57;;;3.42;;
45007;SDS011;30743;52.008;5.644;2023-05-19T06:13:32;6.22;;;3.58;;
45007;SDS011;30743;52.008;5.644;2023-05-19T06:16:00;7.00;;;3.83;;
45007;SDS011;30743;52.008;5.644;2023-05-19T06:18:26;5.35;;;3.10;;
45007;SDS011;30743;52.008;5.644;2023-05-19T06:20:52;4.15;;;2.97;;
45007;SDS011;30743;52.008;5.644;2023-05-19T06:23:18;6.97;;;3.42;;
45007;SDS011;30743;52.008;5.644;2023-05-19T06:25:44;7.13;;;3.03;;
45007;SDS011;30743;52.008;5.644;2023-05-19T06:28:10;8.80;;;3.20;;
45007;SDS011;30743;52.008;5.644;2023-05-19T06:30:35;7.10;;;3.47;;
45007;SDS011;30743;52.008;5.644;2023-05-19T06:33:01;5.70;;;3.08;;
45007;SDS011;30743;52.008;5.644;2023-05-19T06:35:27;9.13;;;2.75;;
45007;SDS011;30743;52.008;5.644;2023-05-19T06:37:53;5.70;;;2.35;;
45007;SDS011;30743;52.008;5.644;2023-05-19T06:40:20;6.25;;;2.35;;
45007;SDS011;30743;52.008;5.644;2023-05-19T06:42:49;4.18;;;2.28;;
45007;SDS011;30743;52.008;5.644;2023-05-19T06:45:14;6.32;;;2.45;;
45007;SDS011;30743;52.008;5.644;2023-05-19T06:47:40;5.90;;;2.30;;
45007;SDS011;30743;52.008;5.644;2023-05-19T06:50:06;9.45;;;2.53;;
45007;SDS011;30743;52.008;5.644;2023-05-19T06:52:33;7.90;;;2.33;;
45007;SDS011;30743;52.008;5.644;2023-05-19T06:54:59;5.03;;;2.20;;
45007;SDS011;30743;52.008;5.644;2023-05-19T06:57:25;4.30;;;2.08;;
45007;SDS011;30743;52.008;5.644;2023-05-19T06:59:50;7.55;;;2.00;;
45007;SDS011;30743;52.008;5.644;2023-05-19T07:02:17;5.97;;;2.05;;
45007;SDS011;30743;52.008;5.644;2023-05-19T07:04:42;5.60;;;1.90;;
45007;SDS011;30743;52.008;5.644;2023-05-19T07:07:08;5.25;;;1.90;;
45007;SDS011;30743;52.008;5.644;2023-05-19T07:09:33;4.28;;;1.45;;
45007;SDS011;30743;52.008;5.644;2023-05-19T07:11:59;3.70;;;1.90;;
45007;SDS011;30743;52.008;5.644;2023-05-19T07:14:25;4.97;;;1.90;;
45007;SDS011;30743;52.008;5.644;2023-05-19T07:16:51;6.95;;;1.77;;
45007;SDS011;30743;52.008;5.644;2023-05-19T07:19:16;6.70;;;2.17;;
45007;SDS011;30743;52.008;5.644;2023-05-19T07:21:43;5.80;;;1.50;;
45007;SDS011;30743;52.008;5.644;2023-05-19T07:24:10;3.13;;;1.60;;
45007;SDS011;30743;52.008;5.644;2023-05-19T07:26:35;3.50;;;1.58;;
45007;SDS011;30743;52.008;5.644;2023-05-19T07:29:01;9.73;;;1.88;;
45007;SDS011;30743;52.008;5.644;2023-05-19T07:31:26;4.93;;;1.35;;
45007;SDS011;30743;52.008;5.644;2023-05-19T07:33:52;4.45;;;1.20;;
45007;SDS011;30743;52.008;5.644;2023-05-19T07:36:18;5.25;;;1.40;;
45007;SDS011;30743;52.008;5.644;2023-05-19T07:38:44;7.50;;;1.42;;
45007;SDS011;30743;52.008;5.644;2023-05-19T07:41:10;5.72;;;1.90;;
45007;SDS011;30743;52.008;5.644;2023-05-19T07:43:36;5.28;;;1.92;;
45007;SDS011;30743;52.008;5.644;2023-05-19T07:46:02;3.28;;;1.30;;
45007;SDS011;30743;52.008;5.644;2023-05-19T07:48:27;3.22;;;1.08;;
45007;SDS011;30743;52.008;5.644;2023-05-19T07:50:53;6.40;;;1.30;;
45007;SDS011;30743;52.008;5.644;2023-05-19T07:53:19;5.00;;;1.70;;
45007;SDS011;30743;52.008;5.644;2023-05-19T07:55:46;6.00;;;1.13;;
45007;SDS011;30743;52.008;5.644;2023-05-19T07:58:12;2.38;;;1.00;;
45007;SDS011;30743;52.008;5.644;2023-05-19T08:00:38;7.38;;;1.15;;
45007;SDS011;30743;52.008;5.644;2023-05-19T08:03:04;3.92;;;1.27;;
45007;SDS011;30743;52.008;5.644;2023-05-19T08:05:31;6.40;;;1.77;;
45007;SDS011;30743;52.008;5.644;2023-05-19T08:07:58;3.83;;;1.25;;
45007;SDS011;30743;52.008;5.644;2023-05-19T08:10:24;5.72;;;1.50;;
45007;SDS011;30743;52.008;5.644;2023-05-19T08:12:49;3.50;;;1.20;;
45007;SDS011;30743;52.008;5.644;2023-05-19T08:15:15;4.32;;;1.10;;
45007;SDS011;30743;52.008;5.644;2023-05-19T08:17:41;2.85;;;0.98;;
45007;SDS011;30743;52.008;5.644;2023-05-19T08:20:06;4.18;;;1.30;;
45007;SDS011;30743;52.008;5.644;2023-05-19T08:22:34;3.22;;;1.05;;
45007;SDS011;30743;52.008;5.644;2023-05-19T08:25:00;2.53;;;1.17;;
45007;SDS011;30743;52.008;5.644;2023-05-19T08:27:26;2.45;;;0.90;;
45007;SDS011;30743;52.008;5.644;2023-05-19T08:29:51;5.20;;;1.27;;
45007;SDS011;30743;52.008;5.644;2023-05-19T08:32:19;3.60;;;1.27;;
45007;SDS011;30743;52.008;5.644;2023-05-19T08:34:44;4.93;;;1.20;;
45007;SDS011;30743;52.008;5.644;2023-05-19T08:37:10;6.55;;;1.52;;
45007;SDS011;30743;52.008;5.644;2023-05-19T08:39:35;6.85;;;1.40;;
45007;SDS011;30743;52.008;5.644;2023-05-19T08:42:01;5.63;;;1.20;;
45007;SDS011;30743;52.008;5.644;2023-05-19T08:44:26;3.40;;;1.15;;
45007;SDS011;30743;52.008;5.644;2023-05-19T08:46:53;4.82;;;1.05;;
45007;SDS011;30743;52.008;5.644;2023-05-19T08:49:22;7.00;;;1.42;;
45007;SDS011;30743;52.008;5.644;2023-05-19T08:57:33;3.40;;;0.80;;
45007;SDS011;30743;52.008;5.644;2023-05-19T09:00:01;5.88;;;1.05;;
45007;SDS011;30743;52.008;5.644;2023-05-19T09:02:32;4.20;;;1.27;;
45007;SDS011;30743;52.008;5.644;2023-05-19T09:04:59;6.13;;;1.20;;
45007;SDS011;30743;52.008;5.644;2023-05-19T09:07:25;4.68;;;1.30;;
45007;SDS011;30743;52.008;5.644;2023-05-19T09:09:53;4.53;;;1.40;;
45007;SDS011;30743;52.008;5.644;2023-05-19T09:12:18;3.53;;;1.10;;
45007;SDS011;30743;52.008;5.644;2023-05-19T09:14:44;3.60;;;1.00;;
45007;SDS011;30743;52.008;5.644;2023-05-19T09:17:10;2.90;;;1.00;;
45007;SDS011;30743;52.008;5.644;2023-05-19T09:19:41;4.10;;;1.08;;
45007;SDS011;30743;52.008;5.644;2023-05-19T09:22:07;6.25;;;1.40;;
45007;SDS011;30743;52.008;5.644;2023-05-19T09:24:33;3.88;;;1.35;;
45007;SDS011;30743;52.008;5.644;2023-05-19T09:26:58;5.07;;;1.10;;
45007;SDS011;30743;52.008;5.644;2023-05-19T09:29:24;3.72;;;1.00;;
45007;SDS011;30743;52.008;5.644;2023-05-19T09:31:54;3.92;;;1.00;;
45007;SDS011;30743;52.008;5.644;2023-05-19T09:34:24;3.78;;;1.05;;
45007;SDS011;30743;52.008;5.644;2023-05-19T09:36:51;4.63;;;1.38;;
45007;SDS011;30743;52.008;5.644;2023-05-19T09:39:18;6.18;;;1.90;;
45007;SDS011;30743;52.008;5.644;2023-05-19T09:41:44;9.23;;;1.33;;
45007;SDS011;30743;52.008;5.644;2023-05-19T09:46:48;2.47;;;1.10;;
45007;SDS011;30743;52.008;5.644;2023-05-19T09:49:20;4.25;;;1.13;;
45007;SDS011;30743;52.008;5.644;2023-05-19T09:51:52;3.25;;;1.17;;
45007;SDS011;30743;52.008;5.644;2023-05-19T09:54:20;4.43;;;1.08;;
45007;SDS011;30743;52.008;5.644;2023-05-19T09:56:55;3.88;;;1.70;;
45007;SDS011;30743;52.008;5.644;2023-05-19T09:59:22;4.68;;;1.35;;
45007;SDS011;30743;52.008;5.644;2023-05-19T10:01:49;4.03;;;1.50;;
45007;SDS011;30743;52.008;5.644;2023-05-19T10:04:19;2.92;;;1.05;;
45007;SDS011;30743;52.008;5.644;2023-05-19T10:06:46;5.18;;;1.17;;
45007;SDS011;30743;52.008;5.644;2023-05-19T10:09:17;3.45;;;1.25;;
45007;SDS011;30743;52.008;5.644;2023-05-19T10:11:50;5.35;;;1.38;;
45007;SDS011;30743;52.008;5.644;2023-05-19T10:14:27;5.30;;;1.40;;
45007;SDS011;30743;52.008;5.644;2023-05-19T10:16:53;5.20;;;1.15;;
45007;SDS011;30743;52.008;5.644;2023-05-19T10:19:22;5.28;;;1.25;;
45007;SDS011;30743;52.008;5.644;2023-05-19T10:21:49;4.72;;;1.58;;
45007;SDS011;30743;52.008;5.644;2023-05-19T10:24:15;5.22;;;1.05;;
45007;SDS011;30743;52.008;5.644;2023-05-19T10:26:52;7.45;;;1.75;;
45007;SDS011;30743;52.008;5.644;2023-05-19T10:29:24;4.38;;;1.23;;
45007;SDS011;30743;52.008;5.644;2023-05-19T10:31:59;2.75;;;1.10;;
45007;SDS011;30743;52.008;5.644;2023-05-19T10:34:53;5.13;;;1.42;;
45007;SDS011;30743;52.008;5.644;2023-05-19T10:37:25;5.68;;;0.95;;
45007;SDS011;30743;52.008;5.644;2023-05-19T10:39:52;4.97;;;1.30;;
45007;SDS011;30743;52.008;5.644;2023-05-19T10:42:27;3.35;;;1.40;;
45007;SDS011;30743;52.008;5.644;2023-05-19T10:45:12;3.35;;;1.10;;
45007;SDS011;30743;52.008;5.644;2023-05-19T10:47:41;2.88;;;1.08;;
45007;SDS011;30743;52.008;5.644;2023-05-19T10:50:08;4.65;;;1.45;;
45007;SDS011;30743;52.008;5.644;2023-05-19T10:52:38;6.05;;;1.52;;
45007;SDS011;30743;52.008;5.644;2023-05-19T10:55:07;5.57;;;1.50;;
45007;SDS011;30743;52.008;5.644;2023-05-19T10:57:34;4.13;;;1.33;;
45007;SDS011;30743;52.008;5.644;2023-05-19T11:00:04;3.65;;;1.30;;
45007;SDS011;30743;52.008;5.644;2023-05-19T11:02:53;4.45;;;1.50;;
45007;SDS011;30743;52.008;5.644;2023-05-19T11:05:26;2.95;;;1.25;;
45007;SDS011;30743;52.008;5.644;2023-05-19T11:07:54;4.20;;;1.17;;
45007;SDS011;30743;52.008;5.644;2023-05-19T11:10:31;4.50;;;1.05;;
45007;SDS011;30743;52.008;5.644;2023-05-19T11:12:57;4.53;;;1.15;;
45007;SDS011;30743;52.008;5.644;2023-05-19T11:15:24;2.38;;;1.33;;
45007;SDS011;30743;52.008;5.644;2023-05-19T11:17:51;3.97;;;1.13;;
45007;SDS011;30743;52.008;5.644;2023-05-19T11:20:23;4.05;;;1.10;;
45007;SDS011;30743;52.008;5.644;2023-05-19T11:23:03;4.15;;;1.02;;
45007;SDS011;30743;52.008;5.644;2023-05-19T11:25:43;3.17;;;1.17;;
45007;SDS011;30743;52.008;5.644;2023-05-19T11:28:10;4.25;;;1.33;;
45007;SDS011;30743;52.008;5.644;2023-05-19T11:30:37;3.88;;;1.30;;
45007;SDS011;30743;52.008;5.644;2023-05-19T11:33:05;3.83;;;1.30;;
45007;SDS011;30743;52.008;5.644;2023-05-19T11:35:32;4.78;;;1.50;;
45007;SDS011;30743;52.008;5.644;2023-05-19T11:37:58;3.65;;;1.23;;
45007;SDS011;30743;52.008;5.644;2023-05-19T11:40:25;3.03;;;1.20;;
45007;SDS011;30743;52.008;5.644;2023-05-19T11:42:51;4.47;;;1.10;;
45007;SDS011;30743;52.008;5.644;2023-05-19T11:45:17;5.47;;;1.42;;
45007;SDS011;30743;52.008;5.644;2023-05-19T11:47:49;2.20;;;1.10;;
45007;SDS011;30743;52.008;5.644;2023-05-19T11:50:15;3.70;;;1.38;;
45007;SDS011;30743;52.008;5.644;2023-05-19T11:52:44;2.58;;;1.10;;
45007;SDS011;30743;52.008;5.644;2023-05-19T11:55:14;2.95;;;1.50;;
45007;SDS011;30743;52.008;5.644;2023-05-19T11:57:40;5.55;;;1.30;;
45007;SDS011;30743;52.008;5.644;2023-05-19T12:00:14;3.42;;;1.30;;
45007;SDS011;30743;52.008;5.644;2023-05-19T12:02:40;5.40;;;2.03;;
45007;SDS011;30743;52.008;5.644;2023-05-19T12:05:05;5.35;;;1.25;;
45007;SDS011;30743;52.008;5.644;2023-05-19T12:07:32;3.75;;;1.33;;
45007;SDS011;30743;52.008;5.644;2023-05-19T12:09:58;3.65;;;1.20;;
45007;SDS011;30743;52.008;5.644;2023-05-19T12:12:24;3.60;;;1.10;;
45007;SDS011;30743;52.008;5.644;2023-05-19T12:14:50;3.35;;;1.30;;
45007;SDS011;30743;52.008;5.644;2023-05-19T12:17:18;5.07;;;1.55;;
45007;SDS011;30743;52.008;5.644;2023-05-19T12:19:45;3.17;;;1.33;;
45007;SDS011;30743;52.008;5.644;2023-05-19T12:22:11;4.70;;;1.30;;
45007;SDS011;30743;52.008;5.644;2023-05-19T12:24:38;4.95;;;1.55;;
45007;SDS011;30743;52.008;5.644;2023-05-19T12:27:41;4.32;;;1.60;;
45007;SDS011;30743;52.008;5.644;2023-05-19T12:30:01;2.88;;;1.23;;
45007;SDS011;30743;52.008;5.644;2023-05-19T12:32:28;4.35;;;1.20;;
45007;SDS011;30743;52.008;5.644;2023-05-19T12:34:57;3.42;;;1.38;;
45007;SDS011;30743;52.008;5.644;2023-05-19T12:37:26;4.18;;;1.52;;
45007;SDS011;30743;52.008;5.644;2023-05-19T12:39:51;4.95;;;1.40;;
45007;SDS011;30743;52.008;5.644;2023-05-19T12:42:17;4.30;;;1.30;;
45007;SDS011;30743;52.008;5.644;2023-05-19T12:44:47;2.35;;;1.10;;
45007;SDS011;30743;52.008;5.644;2023-05-19T12:47:17;3.90;;;1.50;;
45007;SDS011;30743;52.008;5.644;2023-05-19T12:49:59;2.42;;;1.20;;
45007;SDS011;30743;52.008;5.644;2023-05-19T12:52:25;3.85;;;1.42;;
45007;SDS011;30743;52.008;5.644;2023-05-19T12:57:32;5.03;;;1.08;;
45007;SDS011;30743;52.008;5.644;2023-05-19T13:00:02;2.55;;;1.38;;
45007;SDS011;30743;52.008;5.644;2023-05-19T13:02:34;6.07;;;1.23;;
45007;SDS011;30743;52.008;5.644;2023-05-19T13:05:18;4.03;;;1.42;;
45007;SDS011;30743;52.008;5.644;2023-05-19T13:07:52;4.95;;;1.70;;
45007;SDS011;30743;52.008;5.644;2023-05-19T13:10:18;3.60;;;1.17;;
45007;SDS011;30743;52.008;5.644;2023-05-19T13:12:44;3.28;;;1.30;;
45007;SDS011;30743;52.008;5.644;2023-05-19T13:15:10;3.33;;;1.15;;
45007;SDS011;30743;52.008;5.644;2023-05-19T13:17:35;4.03;;;1.20;;
45007;SDS011;30743;52.008;5.644;2023-05-19T13:20:01;3.80;;;1.25;;
45007;SDS011;30743;52.008;5.644;2023-05-19T13:22:28;6.25;;;1.30;;
45007;SDS011;30743;52.008;5.644;2023-05-19T13:24:54;4.05;;;1.45;;
45007;SDS011;30743;52.008;5.644;2023-05-19T13:27:22;4.13;;;1.40;;
45007;SDS011;30743;52.008;5.644;2023-05-19T13:29:48;4.50;;;1.48;;
45007;SDS011;30743;52.008;5.644;2023-05-19T13:32:14;4.95;;;1.42;;
45007;SDS011;30743;52.008;5.644;2023-05-19T13:34:40;3.75;;;1.30;;
45007;SDS011;30743;52.008;5.644;2023-05-19T13:37:06;4.07;;;1.30;;
45007;SDS011;30743;52.008;5.644;2023-05-19T13:39:33;3.25;;;1.20;;
45007;SDS011;30743;52.008;5.644;2023-05-19T13:41:59;4.38;;;1.27;;
45007;SDS011;30743;52.008;5.644;2023-05-19T13:44:25;3.10;;;1.25;;
45007;SDS011;30743;52.008;5.644;2023-05-19T13:46:50;3.50;;;1.13;;
45007;SDS011;30743;52.008;5.644;2023-05-19T13:49:16;6.22;;;1.63;;
45007;SDS011;30743;52.008;5.644;2023-05-19T13:51:41;3.38;;;1.52;;
45007;SDS011;30743;52.008;5.644;2023-05-19T13:54:08;4.65;;;1.70;;
45007;SDS011;30743;52.008;5.644;2023-05-19T13:56:34;4.93;;;1.58;;
45007;SDS011;30743;52.008;5.644;2023-05-19T13:58:59;8.48;;;1.58;;
45007;SDS011;30743;52.008;5.644;2023-05-19T14:01:25;11.02;;;2.15;;
45007;SDS011;30743;52.008;5.644;2023-05-19T14:03:51;4.15;;;1.73;;
45007;SDS011;30743;52.008;5.644;2023-05-19T14:06:16;4.45;;;1.58;;
45007;SDS011;30743;52.008;5.644;2023-05-19T14:08:42;6.65;;;1.60;;
45007;SDS011;30743;52.008;5.644;2023-05-19T14:11:08;5.95;;;1.50;;
45007;SDS011;30743;52.008;5.644;2023-05-19T14:13:34;3.42;;;1.38;;
45007;SDS011;30743;52.008;5.644;2023-05-19T14:15:59;3.40;;;1.40;;
45007;SDS011;30743;52.008;5.644;2023-05-19T14:18:25;3.55;;;1.48;;
45007;SDS011;30743;52.008;5.644;2023-05-19T14:20:50;2.92;;;1.40;;
45007;SDS011;30743;52.008;5.644;2023-05-19T14:23:16;3.13;;;1.15;;
45007;SDS011;30743;52.008;5.644;2023-05-19T14:25:43;4.22;;;1.67;;
45007;SDS011;30743;52.008;5.644;2023-05-19T14:28:09;5.55;;;1.77;;
45007;SDS011;30743;52.008;5.644;2023-05-19T14:30:35;4.82;;;1.80;;
45007;SDS011;30743;52.008;5.644;2023-05-19T14:33:00;4.22;;;1.40;;
45007;SDS011;30743;52.008;5.644;2023-05-19T14:35:26;4.57;;;1.25;;
45007;SDS011;30743;52.008;5.644;2023-05-19T14:37:52;4.88;;;1.58;;
45007;SDS011;30743;52.008;5.644;2023-05-19T14:40:17;10.10;;;2.10;;
45007;SDS011;30743;52.008;5.644;2023-05-19T14:42:43;5.18;;;1.60;;
45007;SDS011;30743;52.008;5.644;2023-05-19T14:45:08;2.92;;;1.42;;
45007;SDS011;30743;52.008;5.644;2023-05-19T14:47:34;4.38;;;1.52;;
45007;SDS011;30743;52.008;5.644;2023-05-19T14:50:00;3.20;;;1.27;;
45007;SDS011;30743;52.008;5.644;2023-05-19T14:52:25;4.68;;;1.52;;
45007;SDS011;30743;52.008;5.644;2023-05-19T14:54:51;6.25;;;1.30;;
45007;SDS011;30743;52.008;5.644;2023-05-19T14:57:16;4.30;;;1.20;;
45007;SDS011;30743;52.008;5.644;2023-05-19T14:59:42;4.85;;;1.45;;
45007;SDS011;30743;52.008;5.644;2023-05-19T15:02:08;7.82;;;1.50;;
45007;SDS011;30743;52.008;5.644;2023-05-19T15:04:35;2.70;;;1.10;;
45007;SDS011;30743;52.008;5.644;2023-05-19T15:07:00;3.67;;;1.20;;
45007;SDS011;30743;52.008;5.644;2023-05-19T15:09:26;2.72;;;1.25;;
45007;SDS011;30743;52.008;5.644;2023-05-19T15:11:51;3.67;;;1.42;;